Time;durP1;ratioP1;P1;durP2;ratioP2;P2;SDS_P1;SDS_P2;PMS_P1;PMS_P2;Temp;Humidity;BMP_temperature;BMP_pressure;BME280_temperature;BME280_humidity;BME280_pressure;Samples;Min_cycle;Max_cycle;Signal;HPM_P1;HPM_P2
2023/04/03 00:00:25;;;;;;;4.72;1.25;;;1.90;99.90;;;;;;12522229;28;20203;-39
2023/04/03 00:06:27;;;;;;;2.38;1.20;;;1.80;99.90;;;;;;12498361;28;20250;-38
2023/04/03 00:12:29;;;;;;;3.97;1.30;;;1.90;99.90;;;;;;12506318;28;20042;-38
2023/04/03 00:18:31;;;;;;;5.25;1.35;;;1.90;99.90;;;;;;12522202;28;20077;-38
2023/04/03 00:24:32;;;;;;;4.65;1.13;;;1.80;99.90;;;;;;12508237;28;20170;-37
2023/04/03 00:30:35;;;;;;;3.83;1.13;;;1.70;99.90;;;;;;12512142;28;20124;-37
2023/04/03 00:36:37;;;;;;;4.80;1.30;;;1.60;99.90;;;;;;12482918;28;20040;-37
2023/04/03 00:42:43;;;;;;;7.13;1.33;;;1.60;99.90;;;;;;12513950;28;20056;-37
2023/04/03 00:48:46;;;;;;;5.45;0.90;;;1.50;99.90;;;;;;12519868;28;20045;-37
2023/04/03 00:54:50;;;;;;;4.85;0.95;;;1.50;99.90;;;;;;12516386;28;20068;-37
2023/04/03 01:00:57;;;;;;;4.70;1.05;;;1.40;99.90;;;;;;12504667;28;20053;-37
2023/04/03 01:07:07;;;;;;;4.55;1.08;;;1.40;99.90;;;;;;12503845;28;20456;-37
2023/04/03 01:13:42;;;;;;;6.00;1.10;;;1.30;99.90;;;;;;12494932;28;20493;-38
2023/04/03 01:19:53;;;;;;;5.78;1.27;;;1.20;99.90;;;;;;12499600;28;20041;-38
2023/04/03 01:25:56;;;;;;;6.03;1.27;;;1.20;99.90;;;;;;12504149;28;20132;-38
2023/04/03 01:32:01;;;;;;;5.10;1.27;;;1.10;99.90;;;;;;12504059;28;20045;-38
2023/04/03 01:38:02;;;;;;;3.65;1.02;;;1.00;99.90;;;;;;12521206;28;20123;-38
2023/04/03 01:44:05;;;;;;;5.57;1.20;;;0.90;99.90;;;;;;12480481;28;20045;-38
2023/04/03 01:50:07;;;;;;;3.85;1.20;;;0.90;99.90;;;;;;12516470;28;20063;-37
2023/04/03 01:56:09;;;;;;;6.05;1.45;;;0.80;99.90;;;;;;12478925;28;20054;-38
2023/04/03 02:02:12;;;;;;;5.28;1.25;;;0.70;99.90;;;;;;12501778;28;20075;-37
2023/04/03 02:08:14;;;;;;;5.20;1.20;;;0.70;99.90;;;;;;12504858;28;20097;-38
2023/04/03 02:14:16;;;;;;;4.47;1.20;;;0.60;99.90;;;;;;12518719;28;20053;-38
2023/04/03 02:20:18;;;;;;;4.47;1.42;;;0.50;99.90;;;;;;12517518;28;20122;-37
2023/04/03 02:26:19;;;;;;;6.13;1.00;;;0.40;99.90;;;;;;12512490;28;20043;-37
2023/04/03 02:32:21;;;;;;;5.95;2.00;;;0.40;99.90;;;;;;12525583;28;20051;-37
2023/04/03 02:38:23;;;;;;;7.00;1.50;;;0.40;99.90;;;;;;12515875;28;20057;-38
2023/04/03 02:44:25;;;;;;;3.05;1.23;;;0.20;99.90;;;;;;12510603;28;20046;-39
2023/04/03 02:50:27;;;;;;;7.20;1.40;;;0.20;99.90;;;;;;12529011;28;20052;-37
2023/04/03 02:56:28;;;;;;;3.55;1.10;;;0.10;99.90;;;;;;12513987;28;20723;-37
2023/04/03 03:02:30;;;;;;;9.52;1.73;;;0.00;99.90;;;;;;12511726;28;20106;-38
2023/04/03 03:08:33;;;;;;;5.03;2.42;;;-0.10;99.90;;;;;;12517807;28;20048;-37
2023/04/03 03:14:35;;;;;;;5.03;1.23;;;-0.20;99.90;;;;;;12515881;28;20045;-38
2023/04/03 03:20:36;;;;;;;4.22;1.10;;;-0.20;99.90;;;;;;12506605;28;20041;-36
2023/04/03 03:26:39;;;;;;;5.57;1.30;;;-0.20;99.90;;;;;;12505495;28;20091;-36
2023/04/03 03:32:41;;;;;;;4.72;1.35;;;-0.20;99.90;;;;;;12502084;28;20099;-36
2023/04/03 03:38:42;;;;;;;5.85;1.23;;;-0.20;99.90;;;;;;12521361;28;20452;-36
2023/04/03 03:44:44;;;;;;;4.22;1.33;;;-0.20;99.90;;;;;;12513357;28;20098;-36
2023/04/03 03:50:47;;;;;;;8.00;1.52;;;-0.30;99.90;;;;;;12521943;28;20389;-36
2023/04/03 03:56:48;;;;;;;4.25;1.73;;;-0.40;99.90;;;;;;12519795;28;20428;-36
2023/04/03 04:02:50;;;;;;;5.63;1.40;;;-0.50;99.90;;;;;;12522689;28;20041;-36
2023/04/03 04:08:52;;;;;;;9.35;1.42;;;-0.50;99.90;;;;;;12516346;28;20044;-35
2023/04/03 04:14:54;;;;;;;8.73;1.98;;;-0.50;99.90;;;;;;12500250;28;20067;-36
2023/04/03 04:20:56;;;;;;;6.97;1.63;;;-0.60;99.90;;;;;;12509105;28;20053;-35
2023/04/03 04:26:58;;;;;;;6.60;1.35;;;-0.60;99.90;;;;;;12511165;28;20044;-37
2023/04/03 04:33:00;;;;;;;4.35;1.38;;;-0.60;99.90;;;;;;12496309;28;20041;-36
2023/04/03 04:39:02;;;;;;;5.03;1.50;;;-0.60;99.90;;;;;;12507549;28;20045;-35
2023/04/03 04:45:04;;;;;;;4.82;1.13;;;-0.70;99.90;;;;;;12515485;28;20060;-35
2023/04/03 04:51:06;;;;;;;3.97;1.40;;;-0.80;99.90;;;;;;12510541;28;20128;-35
2023/04/03 04:57:08;;;;;;;5.65;1.38;;;-0.60;99.90;;;;;;12503754;28;20182;-35
2023/04/03 05:03:10;;;;;;;4.22;1.55;;;-0.70;99.90;;;;;;12511295;28;20068;-35
2023/04/03 05:09:12;;;;;;;6.55;1.17;;;-0.70;99.90;;;;;;12503803;28;20042;-35
2023/04/03 05:15:14;;;;;;;4.63;1.40;;;-0.60;99.90;;;;;;12506610;28;20095;-36
2023/04/03 05:21:18;;;;;;;5.28;1.65;;;-0.70;99.90;;;;;;12510162;28;20049;-35
2023/04/03 05:27:19;;;;;;;9.85;1.58;;;0.20;99.90;;;;;;12520538;28;20052;-35
2023/04/03 05:33:22;;;;;;;7.65;1.90;;;1.10;99.90;;;;;;12525990;28;20045;-36
2023/04/03 05:39:25;;;;;;;4.65;1.50;;;0.40;99.90;;;;;;12507215;28;20056;-36
2023/04/03 05:45:27;;;;;;;9.02;1.85;;;-0.10;99.90;;;;;;12540148;28;20119;-36
2023/04/03 05:51:33;;;;;;;6.25;2.17;;;-0.20;99.90;;;;;;12515265;28;20081;-35
2023/04/03 05:57:35;;;;;;;5.65;1.38;;;0.00;99.90;;;;;;12507904;28;20520;-36
2023/04/03 06:03:37;;;;;;;4.85;1.67;;;1.80;99.90;;;;;;12495740;28;20050;-35
2023/04/03 06:09:42;;;;;;;5.40;1.50;;;1.60;99.90;;;;;;12498317;28;20052;-36
2023/04/03 06:15:44;;;;;;;5.40;1.40;;;1.40;99.90;;;;;;12492276;28;20159;-35
2023/04/03 06:21:47;;;;;;;8.30;2.58;;;1.00;99.90;;;;;;12487225;28;20048;-36
2023/04/03 06:27:48;;;;;;;5.68;1.52;;;0.80;99.90;;;;;;12510085;28;20477;-36
2023/04/03 06:33:50;;;;;;;6.07;1.35;;;0.70;99.90;;;;;;12507420;28;20140;-35
2023/04/03 06:39:52;;;;;;;3.17;1.25;;;1.40;99.90;;;;;;12504922;28;20073;-36
2023/04/03 06:45:54;;;;;;;4.70;1.63;;;1.70;99.90;;;;;;12529980;28;20048;-36
2023/04/03 06:51:56;;;;;;;5.63;1.50;;;1.30;99.90;;;;;;12507861;28;20045;-36
2023/04/03 06:58:00;;;;;;;6.25;1.55;;;1.30;99.90;;;;;;12506101;28;20281;-36
2023/04/03 07:04:02;;;;;;;8.73;1.50;;;1.70;99.90;;;;;;12512592;28;20432;-36
2023/04/03 07:10:06;;;;;;;7.25;1.42;;;1.60;99.90;;;;;;12512328;28;20046;-36
2023/04/03 07:16:08;;;;;;;6.43;1.40;;;2.10;99.90;;;;;;12502612;28;20681;-36
2023/04/03 07:22:11;;;;;;;5.57;1.38;;;2.40;99.90;;;;;;12517612;28;20037;-36
2023/04/03 07:28:14;;;;;;;6.95;1.40;;;2.30;99.90;;;;;;12511320;28;20049;-36
2023/04/03 07:34:16;;;;;;;7.03;1.50;;;2.30;99.90;;;;;;12501280;28;20049;-36
2023/04/03 07:40:18;;;;;;;7.07;1.67;;;2.40;99.90;;;;;;12513895;28;20097;-37
2023/04/03 07:46:21;;;;;;;5.43;1.20;;;2.90;99.90;;;;;;12525453;28;20049;-36
2023/04/03 07:52:24;;;;;;;5.65;1.48;;;3.00;99.90;;;;;;12509432;28;20540;-36
2023/04/03 07:58:26;;;;;;;5.07;1.38;;;2.90;99.90;;;;;;12511201;28;20063;-36
2023/04/03 08:04:28;;;;;;;3.28;1.02;;;3.20;99.90;;;;;;12510403;28;20044;-36
2023/04/03 08:10:31;;;;;;;4.60;1.52;;;3.10;99.90;;;;;;12528294;28;20044;-36
2023/04/03 08:16:33;;;;;;;3.78;1.02;;;3.20;99.90;;;;;;12509932;28;20160;-35
2023/04/03 08:22:35;;;;;;;5.00;1.13;;;3.30;99.90;;;;;;12503035;28;20049;-36
2023/04/03 08:28:38;;;;;;;5.97;1.05;;;3.10;99.90;;;;;;12517030;28;20389;-36
2023/04/03 08:34:40;;;;;;;3.83;0.80;;;3.70;99.90;;;;;;12505105;28;20102;-37
2023/04/03 08:40:45;;;;;;;3.08;0.82;;;4.10;99.90;;;;;;12508662;28;20048;-36
2023/04/03 08:47:06;;;;;;;4.88;0.98;;;4.30;99.90;;;;;;12512167;28;20051;-36
2023/04/03 08:53:27;;;;;;;3.58;1.05;;;4.40;99.90;;;;;;12521406;28;20068;-36
2023/04/03 08:59:34;;;;;;;3.78;1.10;;;4.60;99.90;;;;;;12500545;28;20132;-36
2023/04/03 09:05:59;;;;;;;6.60;0.95;;;4.70;99.90;;;;;;12513306;28;20041;-37
2023/04/03 09:12:15;;;;;;;3.42;0.90;;;5.00;99.90;;;;;;12517954;28;20140;-37
2023/04/03 09:18:25;;;;;;;4.43;0.90;;;5.10;99.90;;;;;;12507452;28;20053;-37
2023/04/03 09:24:27;;;;;;;7.97;0.90;;;5.10;99.90;;;;;;12507804;28;20110;-37
2023/04/03 09:30:29;;;;;;;5.75;1.10;;;5.10;99.90;;;;;;12499197;28;20049;-37
2023/04/03 09:36:59;;;;;;;4.97;1.02;;;5.20;99.90;;;;;;12516349;28;20094;-36
2023/04/03 09:43:19;;;;;;;7.22;1.27;;;5.70;99.90;;;;;;12508353;28;20410;-36
2023/04/03 09:49:21;;;;;;;6.32;1.05;;;6.30;99.90;;;;;;12504002;28;20043;-36
2023/04/03 09:55:29;;;;;;;4.00;0.77;;;5.70;99.90;;;;;;12497814;28;20045;-37
2023/04/03 10:01:34;;;;;;;5.85;1.20;;;4.90;99.90;;;;;;12492480;28;20060;-37
2023/04/03 10:07:38;;;;;;;5.57;1.20;;;5.30;99.90;;;;;;12503018;28;20063;-37
2023/04/03 10:13:56;;;;;;;4.63;1.00;;;5.70;99.90;;;;;;12500232;28;20048;-37
2023/04/03 10:20:20;;;;;;;2.35;0.90;;;5.50;99.90;;;;;;12492756;28;20057;-37
2023/04/03 10:26:39;;;;;;;3.58;1.25;;;6.20;99.90;;;;;;12489291;28;20099;-37
2023/04/03 10:33:05;;;;;;;4.70;0.90;;;6.00;99.90;;;;;;12520278;28;20060;-37
2023/04/03 10:39:26;;;;;;;5.00;1.00;;;5.90;99.90;;;;;;12499831;28;20048;-37
2023/04/03 10:45:51;;;;;;;3.70;1.02;;;5.70;99.90;;;;;;12522272;28;20155;-36
2023/04/03 10:52:00;;;;;;;;;;;5.40;99.90;;;;;;12520376;28;20662;-36
2023/04/03 10:58:04;;;;;;;4.30;1.00;;;5.30;99.90;;;;;;12537234;28;19920;-36
2023/04/03 11:04:07;;;;;;;4.17;1.10;;;5.10;99.90;;;;;;12500535;28;20091;-36
2023/04/03 11:10:19;;;;;;;3.72;0.93;;;5.40;99.90;;;;;;12512117;28;20280;-37
2023/04/03 11:16:26;;;;;;;2.20;0.70;;;5.30;99.90;;;;;;12498893;28;20131;-36
2023/04/03 11:22:52;;;;;;;3.38;0.80;;;5.30;99.90;;;;;;12508069;28;20060;-36
2023/04/03 11:29:06;;;;;;;3.03;0.80;;;5.30;99.90;;;;;;12505335;28;20077;-37
2023/04/03 11:35:09;;;;;;;2.03;0.60;;;5.70;99.90;;;;;;12508035;28;20057;-36
2023/04/03 11:41:13;;;;;;;3.63;0.70;;;5.80;99.90;;;;;;12516313;28;20046;-36
2023/04/03 11:48:06;;;;;;;5.13;0.80;;;5.70;99.90;;;;;;12514896;28;20128;-37
2023/04/03 11:54:40;;;;;;;2.88;0.70;;;7.00;99.90;;;;;;12489604;28;20076;-36
2023/04/03 12:01:03;;;;;;;3.50;0.75;;;7.40;99.90;;;;;;12531202;28;20462;-37
2023/04/03 12:07:16;;;;;;;5.35;0.63;;;7.60;99.90;;;;;;12514795;28;20230;-37
2023/04/03 12:13:18;;;;;;;2.50;0.70;;;7.00;99.90;;;;;;12515935;28;20079;-38
2023/04/03 12:19:20;;;;;;;1.45;0.50;;;6.60;99.90;;;;;;12518261;28;20117;-37
2023/04/03 12:25:50;;;;;;;1.77;0.80;;;6.80;99.90;;;;;;12510787;28;20123;-36
2023/04/03 12:31:54;;;;;;;4.72;0.88;;;6.70;99.90;;;;;;12499958;28;20053;-37
2023/04/03 12:38:12;;;;;;;3.83;0.75;;;6.70;99.90;;;;;;12507849;28;20493;-37
2023/04/03 12:44:16;;;;;;;3.38;0.90;;;6.90;99.90;;;;;;12511119;28;20048;-37
2023/04/03 12:50:24;;;;;;;3.10;0.80;;;7.00;99.90;;;;;;12526546;28;20417;-37
2023/04/03 12:56:29;;;;;;;4.22;0.75;;;7.10;99.90;;;;;;12487128;28;20084;-37
2023/04/03 13:02:35;;;;;;;3.30;0.88;;;6.80;99.90;;;;;;12511106;28;20045;-36
2023/04/03 13:08:37;;;;;;;3.40;0.68;;;6.60;99.90;;;;;;12503627;28;20049;-36
2023/04/03 13:14:40;;;;;;;3.20;0.85;;;6.30;99.90;;;;;;12519673;28;20057;-36
2023/04/03 13:20:42;;;;;;;4.03;0.82;;;6.70;99.90;;;;;;12515840;28;20136;-37
2023/04/03 13:26:45;;;;;;;4.82;0.95;;;7.20;99.90;;;;;;12514750;28;20056;-36
2023/04/03 13:32:47;;;;;;;2.90;0.80;;;6.80;99.90;;;;;;12508291;28;20128;-37
2023/04/03 13:39:02;;;;;;;1.85;0.85;;;6.70;99.90;;;;;;12501223;28;20053;-37
2023/04/03 13:45:27;;;;;;;2.40;0.70;;;7.40;99.90;;;;;;12524661;28;20037;-37
2023/04/03 13:51:30;;;;;;;4.53;1.17;;;7.40;99.90;;;;;;12515516;28;20477;-37
2023/04/03 13:57:32;;;;;;;4.90;0.88;;;7.60;99.90;;;;;;12500936;28;20061;-36
2023/04/03 14:03:47;;;;;;;3.42;0.80;;;7.70;99.90;;;;;;12493655;28;20045;-37
2023/04/03 14:09:50;;;;;;;3.22;0.80;;;7.60;99.90;;;;;;12520117;28;20046;-37
2023/04/03 14:15:52;;;;;;;2.13;0.60;;;7.80;99.90;;;;;;12506794;28;20081;-37
2023/04/03 14:21:57;;;;;;;3.22;1.08;;;7.90;99.90;;;;;;12506528;28;20090;-37
2023/04/03 14:28:00;;;;;;;5.32;1.15;;;7.50;99.90;;;;;;12508698;28;20164;-36
2023/04/03 14:34:02;;;;;;;3.67;0.95;;;6.90;99.90;;;;;;12499204;28;20044;-37
2023/04/03 14:40:05;;;;;;;2.58;0.93;;;7.10;99.90;;;;;;12507284;28;20049;-37
2023/04/03 14:46:29;;;;;;;3.40;1.43;;;7.40;99.90;;;;;;12496490;28;20053;-37
2023/04/03 14:52:45;;;;;;;4.85;1.00;;;8.00;99.90;;;;;;12505515;28;20049;-37
2023/04/03 14:58:50;;;;;;;3.28;0.77;;;7.80;99.90;;;;;;12505469;28;20132;-37
2023/04/03 15:04:52;;;;;;;2.85;0.80;;;6.90;99.90;;;;;;12517213;28;20045;-37
2023/04/03 15:10:55;;;;;;;3.38;1.08;;;7.40;99.90;;;;;;12496322;28;20143;-37
2023/04/03 15:16:57;;;;;;;2.85;0.73;;;8.30;99.90;;;;;;12500473;28;20050;-38
2023/04/03 15:23:01;;;;;;;3.80;0.80;;;8.60;99.90;;;;;;12522157;28;20049;-36
2023/04/03 15:29:04;;;;;;;2.97;0.90;;;7.50;99.90;;;;;;12521107;28;20464;-36
2023/04/03 15:35:06;;;;;;;3.00;1.00;;;6.90;99.90;;;;;;12510702;28;20095;-35
2023/04/03 15:41:08;;;;;;;1.65;0.68;;;7.20;99.90;;;;;;12515354;28;20528;-36
2023/04/03 15:47:10;;;;;;;3.00;0.88;;;8.00;99.90;;;;;;12510584;28;20128;-37
2023/04/03 15:53:12;;;;;;;2.40;0.73;;;8.00;99.90;;;;;;12504410;28;20060;-36
2023/04/03 15:59:14;;;;;;;1.50;0.70;;;7.30;99.90;;;;;;12504070;28;20050;-36
2023/04/03 16:05:17;;;;;;;1.83;0.70;;;6.70;99.90;;;;;;12516492;28;20076;-36
2023/04/03 16:11:19;;;;;;;4.30;1.00;;;7.10;99.90;;;;;;12517906;28;20053;-35
2023/04/03 16:17:20;;;;;;;3.40;0.90;;;7.50;99.90;;;;;;12520359;28;20477;-36
2023/04/03 16:23:23;;;;;;;3.40;0.80;;;8.00;99.90;;;;;;12513365;28;20055;-36
2023/04/03 16:29:25;;;;;;;3.15;0.90;;;7.90;99.90;;;;;;12505339;28;20048;-36
2023/04/03 16:35:26;;;;;;;2.17;0.60;;;7.70;99.90;;;;;;12506804;28;20045;-37
2023/04/03 16:41:28;;;;;;;4.80;1.13;;;7.10;99.90;;;;;;12508459;28;20131;-36
2023/04/03 16:47:30;;;;;;;2.65;0.80;;;6.90;99.90;;;;;;12515957;28;20132;-37
2023/04/03 16:53:32;;;;;;;4.32;0.60;;;6.90;99.90;;;;;;12502440;28;20060;-37
2023/04/03 16:59:34;;;;;;;4.07;0.80;;;6.70;99.90;;;;;;12498168;28;20048;-36
2023/04/03 17:05:36;;;;;;;5.07;0.95;;;6.40;99.90;;;;;;12499161;28;20041;-37
2023/04/03 17:11:39;;;;;;;2.80;0.80;;;6.50;99.90;;;;;;12491990;28;20529;-37
2023/04/03 17:17:41;;;;;;;4.00;0.90;;;6.50;99.90;;;;;;12497867;28;20136;-36
2023/04/03 17:23:46;;;;;;;3.95;0.80;;;6.40;99.90;;;;;;12507420;28;20044;-36
2023/04/03 17:29:47;;;;;;;3.65;0.90;;;6.20;99.90;;;;;;12516743;28;20144;-37
2023/04/03 17:35:49;;;;;;;3.00;0.80;;;6.10;99.90;;;;;;12500787;28;20182;-36
2023/04/03 17:41:53;;;;;;;4.75;0.95;;;5.90;99.90;;;;;;12521731;28;20467;-36
2023/04/03 17:47:55;;;;;;;3.13;0.80;;;5.80;99.90;;;;;;12524271;28;20122;-37
2023/04/03 17:53:57;;;;;;;3.78;0.98;;;5.80;99.90;;;;;;12511503;28;20053;-36
2023/04/03 17:59:59;;;;;;;5.40;1.42;;;5.60;99.90;;;;;;12513166;28;20513;-37
2023/04/03 18:06:07;;;;;;;3.45;1.08;;;5.50;99.90;;;;;;12512340;28;20041;-37
2023/04/03 18:12:09;;;;;;;4.07;1.10;;;5.30;99.90;;;;;;12490894;28;20456;-37
2023/04/03 18:18:11;;;;;;;4.20;1.17;;;5.10;99.90;;;;;;12506559;28;20160;-36
2023/04/03 18:24:15;;;;;;;3.20;1.02;;;5.20;99.90;;;;;;12504756;28;20048;-37
2023/04/03 18:30:17;;;;;;;3.63;0.95;;;5.00;99.90;;;;;;12505424;28;20408;-37
2023/04/03 18:36:20;;;;;;;4.95;1.10;;;4.80;99.90;;;;;;12509003;28;20136;-37
2023/04/03 18:42:25;;;;;;;4.35;1.45;;;4.70;99.90;;;;;;12506386;28;20072;-37
2023/04/03 18:48:26;;;;;;;3.90;1.10;;;4.60;99.90;;;;;;12513967;28;20136;-36
2023/04/03 18:54:31;;;;;;;3.43;1.30;;;4.60;99.90;;;;;;12512920;28;20053;-37
2023/04/03 19:00:33;;;;;;;8.25;1.90;;;4.40;99.90;;;;;;12493945;28;20046;-37
2023/04/03 19:06:36;;;;;;;3.13;1.27;;;4.30;99.90;;;;;;12500640;28;20094;-36
2023/04/03 19:12:38;;;;;;;3.25;1.35;;;4.30;99.90;;;;;;12500203;28;20056;-36
2023/04/03 19:18:39;;;;;;;5.10;1.50;;;4.20;99.90;;;;;;12515932;28;20049;-37
2023/04/03 19:24:41;;;;;;;5.15;1.55;;;4.20;99.90;;;;;;12504080;28;20076;-36
2023/04/03 19:30:47;;;;;;;9.43;2.70;;;4.10;99.90;;;;;;12507065;28;20608;-36
2023/04/03 19:36:50;;;;;;;6.75;1.52;;;4.10;99.90;;;;;;12504073;28;20053;-36
2023/04/03 19:42:52;;;;;;;4.10;1.88;;;4.00;99.90;;;;;;12518178;28;20611;-37
2023/04/03 19:48:55;;;;;;;4.47;1.85;;;3.90;99.90;;;;;;12520231;28;20499;-37
2023/04/03 19:54:57;;;;;;;5.05;1.70;;;3.90;99.90;;;;;;12510407;28;20701;-36
2023/04/03 20:00:59;;;;;;;6.53;1.95;;;3.70;99.90;;;;;;12514995;28;20045;-36
2023/04/03 20:07:01;;;;;;;3.20;1.15;;;3.60;99.90;;;;;;12511245;28;20053;-36
2023/04/03 20:13:07;;;;;;;3.80;1.33;;;3.50;99.90;;;;;;12497416;28;20050;-36
2023/04/03 20:19:09;;;;;;;5.80;1.33;;;3.40;99.90;;;;;;12514660;28;20103;-37
2023/04/03 20:25:11;;;;;;;4.63;1.15;;;3.30;99.90;;;;;;12526678;28;20063;-36
2023/04/03 20:31:19;;;;;;;3.80;1.20;;;3.20;99.90;;;;;;12517868;28;20736;-37
2023/04/03 20:37:22;;;;;;;3.87;1.20;;;3.10;99.90;;;;;;12507667;28;20051;-36
2023/04/03 20:43:24;;;;;;;3.65;1.30;;;2.90;99.90;;;;;;12512680;28;20033;-36
2023/04/03 20:49:26;;;;;;;5.32;1.30;;;2.90;99.90;;;;;;12508403;28;20061;-36
2023/04/03 20:55:29;;;;;;;4.35;1.40;;;2.80;99.90;;;;;;12491869;28;20053;-36
2023/04/03 21:01:32;;;;;;;5.10;1.30;;;2.70;99.90;;;;;;12504033;28;20458;-37
2023/04/03 21:08:11;;;;;;;5.03;1.10;;;2.70;99.90;;;;;;12498224;28;20243;-37
2023/04/03 21:14:51;;;;;;;4.82;1.50;;;2.50;99.90;;;;;;12502579;28;20056;-36
2023/04/03 21:20:54;;;;;;;5.50;1.40;;;2.30;99.90;;;;;;12496732;28;20520;-37
2023/04/03 21:26:56;;;;;;;7.03;1.75;;;2.20;99.90;;;;;;12516186;28;20043;-36
2023/04/03 21:32:58;;;;;;;4.88;1.95;;;2.10;99.90;;;;;;12509834;28;20105;-37
2023/04/03 21:39:00;;;;;;;3.05;1.30;;;2.00;99.90;;;;;;12505346;28;20044;-36
2023/04/03 21:45:02;;;;;;;4.70;1.42;;;1.90;99.90;;;;;;12529979;28;20417;-37
2023/04/03 21:51:05;;;;;;;7.25;1.83;;;1.80;99.90;;;;;;12505732;28;20104;-36
2023/04/03 21:57:10;;;;;;;3.80;1.40;;;1.80;99.90;;;;;;12515447;28;20575;-37
2023/04/03 22:03:17;;;;;;;;;;;1.80;99.90;;;;;;12490700;28;20492;-36
2023/04/03 22:09:19;;;;;;;5.03;1.80;;;1.80;99.90;;;;;;12504201;28;20016;-37
2023/04/03 22:15:21;;;;;;;6.10;1.63;;;1.90;99.90;;;;;;12509287;28;20045;-36
2023/04/03 22:21:23;;;;;;;4.40;1.60;;;2.00;99.90;;;;;;12515065;28;20737;-37
2023/04/03 22:27:25;;;;;;;3.17;1.48;;;2.00;99.90;;;;;;12514100;28;20478;-36
2023/04/03 22:33:26;;;;;;;4.22;1.33;;;1.90;99.90;;;;;;12502846;28;20046;-39
2023/04/03 22:39:28;;;;;;;5.40;1.70;;;1.90;99.90;;;;;;12491972;28;20057;-38
2023/04/03 22:45:30;;;;;;;5.60;1.50;;;1.80;99.90;;;;;;12526184;28;20041;-38
2023/04/03 22:51:32;;;;;;;4.68;1.70;;;1.70;99.90;;;;;;12515182;28;20044;-38
2023/04/03 22:57:33;;;;;;;5.03;1.98;;;1.70;99.90;;;;;;12507534;28;20072;-38
2023/04/03 23:03:37;;;;;;;5.22;1.67;;;1.50;99.90;;;;;;12501557;28;20075;-38
2023/04/03 23:09:38;;;;;;;6.28;1.88;;;1.40;99.90;;;;;;12520006;28;20182;-38
2023/04/03 23:15:40;;;;;;;5.78;1.50;;;1.30;99.90;;;;;;12504366;28;20124;-38
2023/04/03 23:21:42;;;;;;;3.38;1.40;;;1.20;99.90;;;;;;12512672;28;20694;-38
2023/04/03 23:27:53;;;;;;;3.30;1.13;;;1.20;99.90;;;;;;12505335;28;20053;-38
2023/04/03 23:33:55;;;;;;;6.40;1.63;;;1.30;99.90;;;;;;12507802;28;20049;-38
2023/04/03 23:39:57;;;;;;;2.65;1.13;;;1.20;99.90;;;;;;12507276;28;20490;-39
2023/04/03 23:46:00;;;;;;;4.43;1.45;;;1.10;99.90;;;;;;12522112;28;20044;-37
2023/04/03 23:52:02;;;;;;;5.65;1.40;;;1.00;99.90;;;;;;12507050;28;20061;-37
2023/04/03 23:58:04;;;;;;;3.85;1.50;;;0.90;99.90;;;;;;12507332;28;20483;-39
